Terminal Aerodrome Forecast
Issued by NWS Spokane, WA

Home | Current Version | Previous Version | Text Only | Print | Product List | Glossary On
Versions: 1 2 3 4 5 6 7 8 9 10 11 12 13 14 15 16 17 18 19 20
000
FTUS46 KOTX 110522
TAFGEG
TAF
KGEG 110522Z 1106/1206 16008KT 2SM -SN SCT005 BKN011 OVC025
     FM110900 19009KT 4SM -SHSN OVC005
     FM111500 21011KT P6SM VCSH OVC007
     FM112100 21008KT P6SM VCSH OVC004
     FM120300 23010KT 2SM -SN SCT005 OVC019=

USA.gov is the U.S. government's official web portal to all federal, state and local government web resources and services.